Hammondsville, Ohio
Current Conditions -  °F | °C
As of 10:51 AM on Monday 26 Jan 2015 (Local Time) from KPIT Reporting Station
Light Snow Light Snow  
Wind Chill: 17°   Ceiling: 700
Heat Index: 26°   Visibility: 0.5mi
Dew Point: 23°   Wind: 9mph
Humidity: 88%   Direction: 360°N
Pressure: 29.71"   Gusts: NA
Location:  40.56°N, 80.71°W
Report Text: KPIT 261551Z 36008KT 1/2SM R28R/4000VP6000FT -SN BKN007 OVC015 M03/M05 A2971 RMK AO2 SFC VIS 3/4 SLP082 P0001 T10331050
Loading
Personal Weather Stations






























Interactive Weather Map New forecast layout! Learn more

10-Day Weather Forecast

Advertisements
Track Severe Weather on mobile